Villa Acevedo, Puerto Rico
Current Conditions -  °F | °C
As of 4:50 PM on Monday 24 Nov 2014 (Local Time) from TJBQ Reporting Station
Scattered Clouds Scattered Clouds  
Wind Chill: 81°   Ceiling: Unl
Heat Index: 85°   Visibility: 10mi
Dew Point: 73°   Wind: 17mph
Humidity: 79%   Direction: 100°E
Pressure: 29.99"   Gusts: 29mph
Location:  18.4951°N, 67.0273°W
Report Text: TJBQ 242050Z 10015G25KT 10SM SCT020 SCT047 27/23 A2999 RMK RWY08 ATIS K
Loading
Personal Weather Stations






























Interactive Weather Map New forecast layout! Learn more

10-Day Weather Forecast

Advertisements
Track Severe Weather on mobile